Time;durP1;ratioP1;P1;durP2;ratioP2;P2;SDS_P1;SDS_P2;PMS_P1;PMS_P2;Temp;Humidity;BMP_temperature;BMP_pressure;BME280_temperature;BME280_humidity;BME280_pressure;Samples;Min_cycle;Max_cycle;Signal;HPM_P1;HPM_P2
2023/01/19 00:00:34;;;;;;;19.48;14.85;;;4.60;99.90;;;;;;6216675;23;20024;-78
2023/01/19 00:03:02;;;;;;;19.42;14.43;;;4.60;99.90;;;;;;6216742;23;20004;-78
2023/01/19 00:05:27;;;;;;;17.55;13.85;;;4.60;99.90;;;;;;6189740;23;20009;-78
2023/01/19 00:07:53;;;;;;;16.65;13.88;;;4.60;99.90;;;;;;6216493;23;20043;-78
2023/01/19 00:10:19;;;;;;;15.85;13.30;;;4.50;99.90;;;;;;6189798;23;20004;-78
2023/01/19 00:12:44;;;;;;;16.00;13.15;;;4.50;99.90;;;;;;6216518;23;20008;-78
2023/01/19 00:15:11;;;;;;;19.20;15.43;;;4.50;99.90;;;;;;6216533;23;20001;-78
2023/01/19 00:17:36;;;;;;;25.83;18.08;;;4.50;99.90;;;;;;6216572;23;20051;-78
2023/01/19 00:20:02;;;;;;;29.90;20.63;;;4.50;99.90;;;;;;6216467;23;20413;-78
2023/01/19 00:22:28;;;;;;;26.27;18.10;;;4.50;99.90;;;;;;6216574;23;20015;-78
2023/01/19 00:24:54;;;;;;;17.88;14.30;;;4.50;99.90;;;;;;6216486;23;20381;-78
2023/01/19 00:27:19;;;;;;;15.55;12.85;;;4.50;99.90;;;;;;6216497;23;20043;-78
2023/01/19 00:29:48;;;;;;;18.05;13.23;;;4.50;99.90;;;;;;6216316;23;20332;-78
2023/01/19 00:32:16;;;;;;;19.27;13.70;;;4.60;99.90;;;;;;6216337;23;20087;-78
2023/01/19 00:34:48;;;;;;;18.60;14.18;;;4.60;99.90;;;;;;6216524;23;20001;-78
2023/01/19 00:37:14;;;;;;;19.73;14.65;;;4.60;99.90;;;;;;6189723;23;20000;-78
2023/01/19 00:39:40;;;;;;;15.35;12.20;;;4.60;99.90;;;;;;6189658;23;20007;-78
2023/01/19 00:44:50;;;;;;;14.55;12.27;;;4.70;99.90;;;;;;6216215;23;20032;-78
2023/01/19 00:47:15;;;;;;;14.00;11.63;;;4.70;99.90;;;;;;6189699;23;20429;-78
2023/01/19 00:49:41;;;;;;;14.55;12.02;;;4.70;99.90;;;;;;6216264;23;20142;-78
2023/01/19 00:52:06;;;;;;;13.98;12.43;;;4.80;99.90;;;;;;6189412;23;20518;-78
2023/01/19 00:54:32;;;;;;;14.45;11.35;;;4.70;99.90;;;;;;6216127;23;20001;-78
2023/01/19 00:56:58;;;;;;;14.77;11.95;;;4.60;99.90;;;;;;6216112;23;20329;-79
2023/01/19 00:59:24;;;;;;;14.38;11.50;;;4.50;99.90;;;;;;6216142;23;20498;-78
2023/01/19 01:01:50;;;;;;;12.15;10.65;;;4.40;99.90;;;;;;6215999;23;20007;-78
2023/01/19 01:04:15;;;;;;;16.85;13.13;;;4.40;99.90;;;;;;6216376;23;19993;-78
2023/01/19 01:06:41;;;;;;;15.57;12.07;;;4.50;99.90;;;;;;6216010;23;20005;-78
2023/01/19 01:09:10;;;;;;;17.38;13.25;;;4.50;99.90;;;;;;6216043;23;20010;-78
2023/01/19 01:11:41;;;;;;;16.08;12.73;;;4.50;99.90;;;;;;6215938;23;20115;-78
2023/01/19 01:14:08;;;;;;;17.00;12.90;;;4.60;99.90;;;;;;6216162;23;19997;-78
2023/01/19 01:16:33;;;;;;;16.45;12.55;;;4.60;99.90;;;;;;6189285;23;20004;-78
2023/01/19 01:18:59;;;;;;;18.70;12.57;;;4.60;99.90;;;;;;6189280;23;20440;-78
2023/01/19 01:21:25;;;;;;;16.42;12.40;;;4.60;99.90;;;;;;6215887;23;20050;-78
2023/01/19 01:23:50;;;;;;;17.60;12.45;;;4.60;99.90;;;;;;6215859;23;20011;-78
2023/01/19 01:26:16;;;;;;;17.30;13.70;;;4.60;99.90;;;;;;6215979;23;20456;-78
2023/01/19 01:28:42;;;;;;;15.88;12.75;;;4.70;99.90;;;;;;6215641;23;20007;-78
2023/01/19 01:31:07;;;;;;;16.95;12.68;;;4.70;99.90;;;;;;6189124;23;20012;-78
2023/01/19 01:33:33;;;;;;;14.18;12.13;;;4.70;99.90;;;;;;6215852;23;20055;-78
2023/01/19 01:35:58;;;;;;;14.65;11.45;;;4.60;99.90;;;;;;6215574;23;20000;-78
2023/01/19 01:38:24;;;;;;;15.00;11.75;;;4.60;99.90;;;;;;6215684;23;20008;-78
2023/01/19 01:40:50;;;;;;;13.82;12.10;;;4.60;99.90;;;;;;6215603;23;20332;-78
2023/01/19 01:43:17;;;;;;;14.23;12.40;;;4.60;99.90;;;;;;6215883;23;20087;-78
2023/01/19 01:45:43;;;;;;;15.63;12.88;;;4.70;99.90;;;;;;6215780;23;20492;-78
2023/01/19 01:48:29;;;;;;;18.77;13.35;;;4.70;99.90;;;;;;6215674;23;20035;-78
2023/01/19 01:51:23;;;;;;;16.13;12.73;;;4.70;99.90;;;;;;6215622;23;20080;-78
2023/01/19 01:54:07;;;;;;;14.68;11.63;;;4.80;99.90;;;;;;6215057;23;20423;-78
2023/01/19 01:56:39;;;;;;;16.00;12.48;;;4.80;99.90;;;;;;6215688;23;20420;-78
2023/01/19 01:59:07;;;;;;;;;;;4.80;99.90;;;;;;6216086;23;20432;-78
2023/01/19 02:04:17;;;;;;;15.57;12.88;;;4.80;99.90;;;;;;6215460;23;20055;-78
2023/01/19 02:15:04;;;;;;;13.27;11.05;;;4.90;99.90;;;;;;6215533;23;20011;-78
2023/01/19 02:17:30;;;;;;;12.75;11.23;;;4.90;99.90;;;;;;6215328;23;20000;-78
2023/01/19 02:19:56;;;;;;;13.35;11.27;;;4.90;99.90;;;;;;6188722;23;20008;-78
2023/01/19 02:22:34;;;;;;;18.25;11.77;;;4.90;99.90;;;;;;6215272;23;20058;-78
2023/01/19 02:25:02;;;;;;;14.93;12.10;;;5.00;99.90;;;;;;6215386;23;20083;-78
2023/01/19 02:27:28;;;;;;;16.90;13.63;;;5.00;99.90;;;;;;6215172;23;20036;-78
2023/01/19 02:29:53;;;;;;;18.90;14.52;;;5.00;99.90;;;;;;6188726;23;20059;-78
2023/01/19 02:32:19;;;;;;;18.13;13.75;;;5.10;99.90;;;;;;6215237;23;20007;-78
2023/01/19 02:34:45;;;;;;;14.65;11.95;;;5.00;99.90;;;;;;6215487;23;20024;-78
2023/01/19 02:37:13;;;;;;;16.05;12.85;;;5.00;99.90;;;;;;6215137;23;20428;-78
2023/01/19 02:39:59;;;;;;;16.35;12.55;;;5.10;99.90;;;;;;6215159;23;20310;-78
2023/01/19 02:42:38;;;;;;;15.65;13.55;;;5.10;99.90;;;;;;6215290;23;20043;-79
2023/01/19 02:45:05;;;;;;;16.10;13.15;;;5.10;99.90;;;;;;6188737;23;20139;-78
2023/01/19 02:47:57;;;;;;;17.20;13.32;;;5.10;99.90;;;;;;6188463;23;20016;-78
2023/01/19 02:50:38;;;;;;;14.80;12.55;;;5.10;99.90;;;;;;6208289;23;20008;-78
2023/01/19 02:53:29;;;;;;;19.45;13.77;;;5.10;99.90;;;;;;6188583;23;20005;-78
2023/01/19 02:56:23;;;;;;;15.03;12.17;;;5.10;99.90;;;;;;6215469;23;19997;-78
2023/01/19 02:59:00;;;;;;;14.50;11.52;;;5.10;99.90;;;;;;6177160;23;20011;-78
2023/01/19 03:01:46;;;;;;;15.15;12.02;;;5.00;99.90;;;;;;6188606;23;20075;-78
2023/01/19 03:04:48;;;;;;;13.98;11.45;;;5.10;99.90;;;;;;6215515;23;20001;-78
2023/01/19 03:07:23;;;;;;;17.15;13.07;;;5.10;99.90;;;;;;6190535;23;20018;-78
2023/01/19 03:09:57;;;;;;;18.85;14.75;;;5.10;99.90;;;;;;6217260;23;20011;-78
2023/01/19 03:12:45;;;;;;;19.60;15.18;;;5.10;99.90;;;;;;6190464;23;20082;-78
2023/01/19 03:15:22;;;;;;;22.08;15.85;;;5.10;99.90;;;;;;6190527;23;20079;-78
2023/01/19 03:17:51;;;;;;;21.65;16.25;;;5.10;99.90;;;;;;6217137;23;20004;-78
2023/01/19 03:20:21;;;;;;;20.63;16.02;;;5.10;99.90;;;;;;6217122;23;20307;-78
2023/01/19 03:22:50;;;;;;;22.63;17.27;;;5.10;99.90;;;;;;6190339;23;20008;-78
2023/01/19 03:25:18;;;;;;;21.67;16.75;;;5.10;99.90;;;;;;6217033;23;19996;-78
2023/01/19 03:27:46;;;;;;;24.48;17.92;;;5.10;99.90;;;;;;6216885;23;20055;-78
2023/01/19 03:30:24;;;;;;;26.75;19.15;;;5.10;99.90;;;;;;6217032;23;20020;-78
2023/01/19 03:33:19;;;;;;;27.67;19.33;;;5.20;99.90;;;;;;6190223;23;20519;-78
2023/01/19 03:35:49;;;;;;;28.15;20.83;;;5.20;99.90;;;;;;6216809;23;20000;-78
2023/01/19 03:38:17;;;;;;;23.48;18.20;;;5.10;99.90;;;;;;6216951;23;20000;-78
2023/01/19 03:40:44;;;;;;;27.48;19.23;;;5.10;99.90;;;;;;6216824;23;20001;-78
2023/01/19 03:43:11;;;;;;;29.13;20.35;;;5.10;99.90;;;;;;6217001;23;20004;-78
2023/01/19 03:45:38;;;;;;;26.88;19.90;;;5.20;99.90;;;;;;6217061;23;20012;-78
2023/01/19 03:48:05;;;;;;;26.08;19.20;;;5.20;99.90;;;;;;6216953;23;20083;-78
2023/01/19 03:50:30;;;;;;;25.23;18.45;;;5.20;99.90;;;;;;6189846;23;20015;-78
2023/01/19 03:53:11;;;;;;;22.10;15.90;;;5.10;99.90;;;;;;6190017;23;20091;-78
2023/01/19 03:55:39;;;;;;;23.27;16.25;;;5.00;99.90;;;;;;6216887;23;20000;-78
2023/01/19 03:58:05;;;;;;;21.65;16.35;;;4.90;99.90;;;;;;6216758;23;20497;-78
2023/01/19 04:00:31;;;;;;;21.67;16.45;;;4.90;99.90;;;;;;6216834;23;20028;-78
2023/01/19 04:02:57;;;;;;;23.23;17.10;;;4.90;99.90;;;;;;6216608;23;20101;-78
2023/01/19 04:05:23;;;;;;;22.85;16.77;;;5.00;99.90;;;;;;6216807;23;20007;-78
2023/01/19 04:07:50;;;;;;;23.80;17.55;;;5.00;99.90;;;;;;6216601;23;20005;-78
2023/01/19 04:10:17;;;;;;;22.60;16.77;;;5.00;99.90;;;;;;6216654;23;20007;-78
2023/01/19 04:12:44;;;;;;;23.98;18.13;;;5.00;99.90;;;;;;6216680;23;20011;-78
2023/01/19 04:15:10;;;;;;;31.15;22.15;;;5.00;99.90;;;;;;6216884;23;20000;-78
2023/01/19 04:17:37;;;;;;;33.65;22.92;;;5.00;99.90;;;;;;6215863;23;19996;-78
2023/01/19 04:20:03;;;;;;;31.70;23.00;;;5.10;99.90;;;;;;6216678;23;20005;-78
2023/01/19 04:22:29;;;;;;;28.58;19.88;;;5.10;99.90;;;;;;6189868;23;20005;-78
2023/01/19 04:24:55;;;;;;;29.75;20.48;;;5.10;99.90;;;;;;6216521;23;20001;-78
2023/01/19 04:27:20;;;;;;;26.33;19.92;;;5.10;99.90;;;;;;6216519;23;20005;-78
2023/01/19 04:29:46;;;;;;;28.92;19.83;;;5.20;99.90;;;;;;6189932;23;20009;-78
2023/01/19 04:32:15;;;;;;;26.25;18.73;;;5.10;99.90;;;;;;6216306;23;20000;-78
2023/01/19 04:34:40;;;;;;;25.02;17.70;;;5.10;99.90;;;;;;6216344;23;19996;-78
2023/01/19 04:37:09;;;;;;;24.38;18.55;;;5.10;99.90;;;;;;6216290;23;20008;-78
2023/01/19 04:39:35;;;;;;;27.45;19.63;;;5.20;99.90;;;;;;6216727;23;20000;-79
2023/01/19 04:42:01;;;;;;;25.63;17.77;;;5.20;99.90;;;;;;6216171;23;20349;-78
2023/01/19 04:44:27;;;;;;;22.83;17.73;;;5.20;99.90;;;;;;6189736;23;20031;-78
2023/01/19 04:46:55;;;;;;;26.65;18.90;;;5.20;99.90;;;;;;6216091;23;20005;-78
2023/01/19 04:49:21;;;;;;;28.17;19.73;;;5.20;99.90;;;;;;6189779;23;20008;-78
2023/01/19 04:51:47;;;;;;;28.35;19.88;;;5.20;99.90;;;;;;6189472;23;20499;-78
2023/01/19 04:54:12;;;;;;;32.35;22.95;;;5.20;99.90;;;;;;6216151;23;20020;-78
2023/01/19 04:56:39;;;;;;;32.00;22.65;;;5.30;99.90;;;;;;6216176;23;20004;-78
2023/01/19 04:59:05;;;;;;;32.40;22.35;;;5.30;99.90;;;;;;6189586;23;20032;-78
2023/01/19 05:01:31;;;;;;;32.15;22.88;;;5.30;99.90;;;;;;6215953;23;20533;-78
2023/01/19 05:04:00;;;;;;;32.35;23.63;;;5.40;99.90;;;;;;6216042;23;20008;-78
2023/01/19 05:06:26;;;;;;;35.65;23.92;;;5.40;99.90;;;;;;6189481;23;20441;-78
2023/01/19 05:08:52;;;;;;;35.08;23.63;;;5.40;99.90;;;;;;6189365;23;20005;-78
2023/01/19 05:11:17;;;;;;;37.72;26.58;;;5.40;99.90;;;;;;6215899;23;20000;-78
2023/01/19 05:13:43;;;;;;;32.20;23.13;;;5.40;99.90;;;;;;6215994;23;20001;-78
2023/01/19 05:16:09;;;;;;;38.00;25.27;;;5.40;99.90;;;;;;6215977;23;20130;-78
2023/01/19 05:18:35;;;;;;;38.00;26.38;;;5.30;99.90;;;;;;6216134;23;20057;-78
2023/01/19 05:21:05;;;;;;;39.47;25.90;;;5.30;99.90;;;;;;6189248;23;20092;-78
2023/01/19 05:23:32;;;;;;;40.38;27.42;;;5.30;99.90;;;;;;6189112;23;20009;-78
2023/01/19 05:26:01;;;;;;;44.17;28.23;;;5.40;99.90;;;;;;6215942;23;20012;-78
2023/01/19 05:28:34;;;;;;;43.63;30.05;;;5.40;99.90;;;;;;6215874;23;20480;-78
2023/01/19 05:31:00;;;;;;;45.70;30.40;;;5.40;99.90;;;;;;6189386;23;20015;-78
2023/01/19 05:33:26;;;;;;;42.08;28.92;;;5.40;99.90;;;;;;6215709;23;20079;-78
2023/01/19 05:35:53;;;;;;;38.55;27.67;;;5.40;99.90;;;;;;6189044;23;20011;-78
2023/01/19 05:38:20;;;;;;;38.78;26.13;;;5.40;99.90;;;;;;6215724;23;20001;-78
2023/01/19 05:40:46;;;;;;;42.35;27.90;;;5.40;99.90;;;;;;6215677;23;20060;-78
2023/01/19 05:43:13;;;;;;;40.13;27.00;;;5.30;99.90;;;;;;6215556;23;20713;-78
2023/01/19 05:45:39;;;;;;;41.92;27.83;;;5.30;99.90;;;;;;6189251;23;20034;-78
2023/01/19 05:48:06;;;;;;;38.25;27.70;;;5.30;99.90;;;;;;6215681;23;20031;-78
2023/01/19 05:50:32;;;;;;;43.92;28.80;;;5.30;99.90;;;;;;6215760;23;20332;-78
2023/01/19 05:52:58;;;;;;;40.13;27.20;;;5.30;99.90;;;;;;6188782;23;20091;-78
2023/01/19 05:55:24;;;;;;;40.90;28.15;;;5.30;99.90;;;;;;6215625;23;20016;-78
2023/01/19 05:57:50;;;;;;;44.17;29.30;;;5.30;99.90;;;;;;6215358;23;20004;-78
2023/01/19 06:00:16;;;;;;;49.38;30.13;;;5.30;99.90;;;;;;6215743;23;20372;-77
2023/01/19 06:02:42;;;;;;;48.40;32.05;;;5.30;99.90;;;;;;6215618;23;20050;-77
2023/01/19 06:05:08;;;;;;;57.42;37.05;;;5.30;99.90;;;;;;6188575;23;20008;-77
2023/01/19 06:07:34;;;;;;;59.47;39.70;;;5.20;99.90;;;;;;6215245;23;20062;-77
2023/01/19 06:09:59;;;;;;;62.65;40.15;;;5.20;99.90;;;;;;6188460;23;20371;-77
2023/01/19 06:12:25;;;;;;;61.30;35.45;;;5.10;99.90;;;;;;6215243;23;20005;-77
2023/01/19 06:14:51;;;;;;;51.33;34.40;;;5.00;99.90;;;;;;6188873;23;20024;-77
2023/01/19 06:17:17;;;;;;;50.17;32.35;;;5.00;99.90;;;;;;6215246;23;20004;-77
2023/01/19 06:19:42;;;;;;;44.55;31.48;;;5.00;99.90;;;;;;6215427;23;19996;-77
2023/01/19 06:22:08;;;;;;;43.55;30.17;;;5.00;99.90;;;;;;6215058;23;20008;-77
2023/01/19 06:24:34;;;;;;;28.85;20.52;;;5.00;99.90;;;;;;6215592;23;20083;-77
2023/01/19 06:26:59;;;;;;;26.10;18.85;;;4.90;99.90;;;;;;6215270;23;20064;-77
2023/01/19 06:29:26;;;;;;;31.08;21.38;;;4.90;99.90;;;;;;6215566;23;20337;-77
2023/01/19 06:31:52;;;;;;;25.02;18.48;;;4.90;99.90;;;;;;6215171;23;20008;-77
2023/01/19 06:34:18;;;;;;;21.67;15.60;;;4.80;99.90;;;;;;6215375;23;20066;-77
2023/01/19 06:36:45;;;;;;;16.90;14.20;;;4.80;99.90;;;;;;6215021;23;20024;-77
2023/01/19 06:39:11;;;;;;;17.63;13.60;;;4.70;99.90;;;;;;6215042;23;19989;-77
2023/01/19 06:41:37;;;;;;;18.95;14.43;;;4.70;99.90;;;;;;6188292;23;20330;-77
2023/01/19 06:44:04;;;;;;;21.98;15.63;;;4.60;99.90;;;;;;6215532;23;19997;-77
2023/01/19 06:46:30;;;;;;;21.13;14.60;;;4.50;99.90;;;;;;6188798;23;20009;-77
2023/01/19 06:48:56;;;;;;;23.88;15.65;;;4.40;99.90;;;;;;6188722;23;20004;-77
2023/01/19 06:51:22;;;;;;;18.60;14.38;;;4.40;99.90;;;;;;6214987;23;20008;-77
2023/01/19 06:53:47;;;;;;;23.05;16.15;;;4.30;99.90;;;;;;6215024;23;20001;-77
2023/01/19 06:56:13;;;;;;;21.25;15.23;;;4.30;99.90;;;;;;6188532;23;20007;-77
2023/01/19 06:58:40;;;;;;;18.20;14.65;;;4.20;99.90;;;;;;6215133;23;20007;-77
2023/01/19 07:01:07;;;;;;;20.55;15.30;;;4.20;99.90;;;;;;6215249;23;19997;-77
2023/01/19 07:03:33;;;;;;;21.95;15.90;;;4.10;99.90;;;;;;6215282;23;20011;-77
2023/01/19 07:06:01;;;;;;;22.35;16.75;;;4.10;99.90;;;;;;6214915;23;20063;-77
2023/01/19 07:08:28;;;;;;;30.52;20.65;;;4.10;99.90;;;;;;6215180;23;20004;-77
2023/01/19 07:11:00;;;;;;;28.80;19.95;;;4.00;99.90;;;;;;6188463;23;20059;-77
2023/01/19 07:13:25;;;;;;;;;;;4.10;99.90;;;;;;6215685;23;20001;-77
2023/01/19 07:15:51;;;;;;;23.40;17.73;;;4.00;99.90;;;;;;6188651;23;20038;-77
2023/01/19 07:18:16;;;;;;;23.40;16.23;;;3.90;99.90;;;;;;6215191;23;20032;-77
2023/01/19 07:20:44;;;;;;;20.63;15.82;;;3.80;99.90;;;;;;6188566;23;20005;-77
2023/01/19 07:23:10;;;;;;;21.98;16.50;;;3.70;99.90;;;;;;6215086;23;20004;-77
2023/01/19 07:25:37;;;;;;;22.63;16.98;;;3.70;99.90;;;;;;6215217;23;20024;-77
2023/01/19 07:28:03;;;;;;;23.65;18.08;;;3.70;99.90;;;;;;6215074;23;20055;-77
2023/01/19 07:30:29;;;;;;;17.67;13.68;;;3.60;99.90;;;;;;6215256;23;20506;-77
2023/01/19 07:32:57;;;;;;;20.70;14.63;;;3.50;99.90;;;;;;6214987;23;20004;-77
2023/01/19 07:35:24;;;;;;;14.57;11.60;;;3.50;99.90;;;;;;6215028;23;20424;-78
2023/01/19 07:37:50;;;;;;;11.87;9.73;;;3.50;99.90;;;;;;6214753;23;20535;-77
2023/01/19 07:40:16;;;;;;;10.00;7.80;;;3.50;99.90;;;;;;6188380;23;20034;-78
2023/01/19 07:42:49;;;;;;;10.53;8.27;;;3.40;99.90;;;;;;6215029;23;20475;-78
2023/01/19 07:45:16;;;;;;;9.37;7.77;;;3.40;99.90;;;;;;6214025;23;20007;-76
2023/01/19 07:47:43;;;;;;;9.70;7.50;;;3.30;99.90;;;;;;6213621;23;20004;-77
2023/01/19 07:50:10;;;;;;;7.57;6.67;;;3.30;99.90;;;;;;6187987;23;20005;-77
2023/01/19 07:52:35;;;;;;;7.28;6.53;;;3.20;99.90;;;;;;6215984;23;20009;-76
2023/01/19 07:55:01;;;;;;;6.30;5.70;;;3.20;99.90;;;;;;6216674;23;20001;-77
2023/01/19 07:57:27;;;;;;;8.47;6.47;;;3.10;99.90;;;;;;6189990;23;20086;-77
2023/01/19 07:59:53;;;;;;;5.80;5.20;;;3.10;99.90;;;;;;6216602;23;20032;-77
2023/01/19 08:02:18;;;;;;;4.03;3.73;;;3.10;99.90;;;;;;6189905;23;20325;-77
2023/01/19 08:04:47;;;;;;;3.37;3.07;;;3.00;99.90;;;;;;6189905;23;20004;-77
2023/01/19 08:07:12;;;;;;;3.03;2.80;;;2.90;99.90;;;;;;6189858;23;20008;-77
2023/01/19 08:09:38;;;;;;;3.17;2.90;;;2.80;99.90;;;;;;6190027;23;20690;-77
2023/01/19 08:12:04;;;;;;;2.47;2.33;;;2.70;99.90;;;;;;6216540;23;20008;-78
2023/01/19 08:14:29;;;;;;;2.13;2.03;;;2.70;99.90;;;;;;6190088;23;20012;-78
2023/01/19 08:17:01;;;;;;;1.87;1.77;;;2.60;99.90;;;;;;6189821;23;20005;-78
2023/01/19 08:19:27;;;;;;;2.97;2.17;;;2.60;99.90;;;;;;6189784;23;20054;-78
2023/01/19 08:21:53;;;;;;;2.40;2.30;;;2.60;99.90;;;;;;6216215;23;20376;-79
2023/01/19 08:24:21;;;;;;;2.30;2.07;;;2.60;99.90;;;;;;6189834;23;20005;-78
2023/01/19 08:26:48;;;;;;;3.40;2.23;;;2.60;99.90;;;;;;6216297;23;20003;-78
2023/01/19 08:29:14;;;;;;;5.47;4.27;;;2.60;99.90;;;;;;6189821;23;20008;-79
2023/01/19 08:31:40;;;;;;;12.17;7.33;;;2.70;99.90;;;;;;6189593;23;20009;-78
2023/01/19 08:34:06;;;;;;;2.70;2.50;;;2.70;99.90;;;;;;6216720;23;20008;-78
2023/01/19 08:36:32;;;;;;;3.53;3.23;;;2.80;99.90;;;;;;6216528;23;20005;-77
2023/01/19 08:38:57;;;;;;;5.87;5.17;;;2.90;99.90;;;;;;6216521;23;20425;-77
2023/01/19 08:41:23;;;;;;;3.53;3.33;;;3.00;99.90;;;;;;6189565;23;20568;-77
2023/01/19 08:43:49;;;;;;;4.03;3.73;;;3.10;99.90;;;;;;6189662;23;20004;-77
2023/01/19 08:46:16;;;;;;;3.63;2.77;;;3.10;99.90;;;;;;6216401;23;20390;-78
2023/01/19 08:48:44;;;;;;;3.93;3.53;;;3.30;99.90;;;;;;6189736;23;20012;-77
2023/01/19 08:51:11;;;;;;;4.03;3.73;;;3.30;99.90;;;;;;6189527;23;20421;-77
2023/01/19 08:53:37;;;;;;;2.07;1.93;;;3.50;99.90;;;;;;6189577;23;20004;-77
2023/01/19 08:56:03;;;;;;;3.60;3.30;;;3.60;99.90;;;;;;6216286;23;20410;-77
2023/01/19 08:58:28;;;;;;;10.57;7.43;;;3.60;99.90;;;;;;6215844;23;20003;-77
2023/01/19 09:00:54;;;;;;;3.17;2.93;;;3.70;99.90;;;;;;6215981;23;20011;-77
2023/01/19 09:03:21;;;;;;;23.83;15.43;;;3.70;99.90;;;;;;6189239;23;20501;-77
2023/01/19 09:05:47;;;;;;;7.53;6.80;;;3.70;99.90;;;;;;6189011;23;20004;-77
2023/01/19 09:08:14;;;;;;;5.93;5.33;;;3.60;99.90;;;;;;6189122;23;20015;-77
2023/01/19 09:10:45;;;;;;;3.37;3.07;;;3.60;99.90;;;;;;6189286;23;20375;-77
2023/01/19 09:13:12;;;;;;;4.80;4.40;;;3.60;99.90;;;;;;6189450;23;20008;-77
2023/01/19 09:15:38;;;;;;;6.80;6.30;;;3.60;99.90;;;;;;6189464;23;20432;-77
2023/01/19 09:18:06;;;;;;;6.43;5.83;;;3.60;99.90;;;;;;6189366;23;20011;-77
2023/01/19 09:20:34;;;;;;;5.00;4.60;;;3.70;99.90;;;;;;6215858;23;20005;-77
2023/01/19 09:23:00;;;;;;;4.30;3.87;;;3.60;99.90;;;;;;6189361;23;20008;-77
2023/01/19 09:25:26;;;;;;;9.67;8.73;;;3.50;99.90;;;;;;6189405;23;20087;-77
2023/01/19 09:27:52;;;;;;;7.23;6.53;;;3.40;99.90;;;;;;6216011;23;20008;-77
2023/01/19 09:30:18;;;;;;;7.50;6.67;;;3.20;99.90;;;;;;6216066;23;20015;-77
2023/01/19 09:32:44;;;;;;;7.13;6.57;;;3.20;99.90;;;;;;6189151;23;20464;-77
2023/01/19 09:35:10;;;;;;;6.00;5.50;;;3.20;99.90;;;;;;6216118;23;19997;-77
2023/01/19 09:37:36;;;;;;;9.40;7.60;;;3.20;99.90;;;;;;6189090;23;20005;-77
2023/01/19 09:40:04;;;;;;;6.67;6.07;;;3.20;99.90;;;;;;6189118;23;20011;-77
2023/01/19 09:42:43;;;;;;;5.80;5.30;;;3.20;99.90;;;;;;6215586;23;20019;-78
2023/01/19 09:45:37;;;;;;;6.17;5.67;;;3.20;99.90;;;;;;6215761;23;20036;-77
2023/01/19 09:48:07;;;;;;;5.33;4.93;;;3.20;99.90;;;;;;6188967;23;20009;-77
2023/01/19 09:50:45;;;;;;;5.23;4.73;;;3.10;99.90;;;;;;6215709;23;20001;-77
2023/01/19 09:53:25;;;;;;;4.10;3.90;;;3.20;99.90;;;;;;6215379;23;20001;-77
2023/01/19 09:55:51;;;;;;;8.10;7.30;;;3.10;99.90;;;;;;6215515;23;20001;-77
2023/01/19 09:58:18;;;;;;;5.43;4.93;;;3.10;99.90;;;;;;6189003;23;20464;-77
2023/01/19 10:00:52;;;;;;;4.23;3.93;;;3.10;99.90;;;;;;6215644;23;20091;-77
2023/01/19 10:03:19;;;;;;;4.40;4.10;;;3.00;99.90;;;;;;6215822;23;20008;-77
2023/01/19 10:05:57;;;;;;;8.17;5.87;;;2.90;99.90;;;;;;6215629;23;20009;-77
2023/01/19 10:08:35;;;;;;;5.10;4.70;;;2.70;99.90;;;;;;6188755;23;20009;-77
2023/01/19 10:11:01;;;;;;;9.50;7.83;;;2.70;99.90;;;;;;6188911;23;20036;-77
2023/01/19 10:13:43;;;;;;;29.13;19.93;;;2.80;99.90;;;;;;6215240;23;20008;-78
2023/01/19 10:16:24;;;;;;;13.40;10.17;;;2.80;99.90;;;;;;6189000;23;20008;-77
2023/01/19 10:18:55;;;;;;;9.40;8.17;;;2.80;99.90;;;;;;6188836;23;20535;-77
2023/01/19 10:21:34;;;;;;;7.85;7.13;;;2.80;99.90;;;;;;6215464;23;20004;-77
2023/01/19 10:24:12;;;;;;;7.40;6.60;;;2.80;99.90;;;;;;6215447;23;20008;-77
2023/01/19 10:26:56;;;;;;;5.47;5.07;;;2.80;99.90;;;;;;6215454;23;20004;-76
2023/01/19 10:29:36;;;;;;;8.87;7.97;;;2.80;99.90;;;;;;6215303;23;19997;-77
2023/01/19 10:32:20;;;;;;;8.00;7.20;;;2.80;99.90;;;;;;6188461;23;20486;-77
2023/01/19 10:34:46;;;;;;;9.40;7.83;;;2.80;99.90;;;;;;6188495;23;20001;-77
2023/01/19 10:37:20;;;;;;;10.00;9.10;;;2.90;99.90;;;;;;6187927;23;20413;-77
2023/01/19 10:40:05;;;;;;;4.80;4.50;;;2.80;99.90;;;;;;6188649;23;20055;-77
2023/01/19 10:42:31;;;;;;;6.70;6.20;;;2.80;99.90;;;;;;6188137;23;20625;-77
2023/01/19 10:44:58;;;;;;;6.70;6.10;;;2.80;99.90;;;;;;6213544;23;20028;-77
2023/01/19 10:47:33;;;;;;;6.60;6.00;;;2.70;99.90;;;;;;6188677;23;20013;-77
2023/01/19 10:49:58;;;;;;;4.53;4.17;;;2.70;99.90;;;;;;6188702;23;20451;-77
2023/01/19 10:52:36;;;;;;;4.20;3.90;;;2.60;99.90;;;;;;6188109;23;20095;-77
2023/01/19 10:55:03;;;;;;;3.47;3.27;;;2.50;99.90;;;;;;6188761;23;20362;-77
2023/01/19 10:57:36;;;;;;;2.50;2.40;;;2.40;99.90;;;;;;6214992;23;19997;-77
2023/01/19 11:00:04;;;;;;;2.97;2.77;;;2.50;99.90;;;;;;6188417;23;20032;-77
2023/01/19 11:02:31;;;;;;;2.83;2.63;;;2.40;99.90;;;;;;6215328;23;20015;-77
2023/01/19 11:05:18;;;;;;;2.80;2.60;;;2.40;99.90;;;;;;6215384;23;20009;-77
2023/01/19 11:07:44;;;;;;;3.40;3.10;;;2.40;99.90;;;;;;6163518;23;20012;-77
2023/01/19 11:10:16;;;;;;;7.17;4.30;;;2.40;99.90;;;;;;6215063;23;20080;-77
2023/01/19 11:13:02;;;;;;;5.63;3.25;;;2.30;99.90;;;;;;6188423;23;20428;-77
2023/01/19 11:15:39;;;;;;;9.27;5.47;;;2.40;99.90;;;;;;6215214;23;20000;-77
2023/01/19 11:18:05;;;;;;;4.33;3.93;;;2.30;99.90;;;;;;6215293;23;20003;-77
2023/01/19 11:20:51;;;;;;;3.53;2.83;;;2.30;99.90;;;;;;6188438;23;20071;-78
2023/01/19 11:23:28;;;;;;;3.13;2.90;;;2.30;99.90;;;;;;6215053;23;20008;-77
2023/01/19 11:26:02;;;;;;;2.60;2.40;;;2.30;99.90;;;;;;6189716;23;20035;-76
2023/01/19 11:28:32;;;;;;;2.60;2.47;;;2.30;99.90;;;;;;6190581;23;20012;-77
2023/01/19 11:31:00;;;;;;;3.60;3.10;;;2.40;99.90;;;;;;6190572;23;20096;-77
2023/01/19 11:33:42;;;;;;;2.77;2.57;;;2.40;99.90;;;;;;6190301;23;20313;-77
2023/01/19 11:36:20;;;;;;;3.30;3.00;;;2.50;99.90;;;;;;6190416;23;20087;-77
2023/01/19 11:38:50;;;;;;;3.00;2.80;;;2.40;99.90;;;;;;6190588;23;20004;-77
2023/01/19 11:41:16;;;;;;;2.50;2.30;;;2.40;99.90;;;;;;6190199;23;20087;-77
2023/01/19 11:43:42;;;;;;;2.70;2.50;;;2.40;99.90;;;;;;6190418;23;20009;-77
2023/01/19 11:46:11;;;;;;;2.20;2.10;;;2.50;99.90;;;;;;6190353;23;20074;-77
2023/01/19 11:48:48;;;;;;;2.33;2.23;;;2.50;99.90;;;;;;6190209;23;20008;-77
2023/01/19 11:51:20;;;;;;;2.70;2.50;;;2.40;99.90;;;;;;6190123;23;20083;-77
2023/01/19 11:53:51;;;;;;;2.30;2.20;;;2.50;99.90;;;;;;6190216;23;20009;-78
2023/01/19 11:56:20;;;;;;;3.60;2.57;;;2.50;99.90;;;;;;6190167;23;20005;-78
2023/01/19 11:58:46;;;;;;;2.60;2.40;;;2.50;99.90;;;;;;6216935;23;20058;-77
2023/01/19 12:01:34;;;;;;;3.13;2.90;;;2.50;99.90;;;;;;6190203;23;20005;-77
2023/01/19 12:04:00;;;;;;;2.43;2.30;;;2.60;99.90;;;;;;6190164;23;20013;-78
2023/01/19 12:06:33;;;;;;;2.87;2.67;;;2.60;99.90;;;;;;6189865;23;20036;-77
2023/01/19 12:09:11;;;;;;;2.40;2.30;;;2.70;99.90;;;;;;6190438;23;20043;-77
2023/01/19 12:11:41;;;;;;;2.00;1.90;;;2.70;99.90;;;;;;6216809;23;20084;-77
2023/01/19 12:14:19;;;;;;;3.03;2.73;;;2.80;99.90;;;;;;6189891;23;20573;-77
2023/01/19 12:16:45;;;;;;;2.50;2.20;;;2.90;99.90;;;;;;6189615;23;20445;-77
2023/01/19 12:19:18;;;;;;;2.00;1.90;;;3.00;99.90;;;;;;6189875;23;20131;-77
2023/01/19 12:21:47;;;;;;;1.87;1.77;;;3.10;99.90;;;;;;6189812;23;20041;-77
2023/01/19 12:24:14;;;;;;;1.87;1.73;;;3.10;99.90;;;;;;6189998;23;20011;-77
2023/01/19 12:26:56;;;;;;;1.80;1.70;;;3.20;99.90;;;;;;6216535;23;20007;-77
2023/01/19 12:29:26;;;;;;;2.40;2.30;;;3.30;99.90;;;;;;6216495;23;20420;-77
2023/01/19 12:32:47;;;;;;;1.90;1.80;;;3.30;99.90;;;;;;6189652;23;20429;-78
2023/01/19 12:35:51;;;;;;;2.53;2.40;;;3.40;99.90;;;;;;6180990;23;20005;-77
2023/01/19 12:38:47;;;;;;;2.73;1.73;;;3.40;99.90;;;;;;6189439;23;20076;-77
2023/01/19 12:41:32;;;;;;;1.60;1.50;;;3.50;99.90;;;;;;6148547;23;20013;-77
2023/01/19 12:44:10;;;;;;;6.37;4.63;;;3.60;99.90;;;;;;6216205;23;20001;-77
2023/01/19 12:46:53;;;;;;;7.87;4.43;;;3.70;99.90;;;;;;6216214;23;20020;-77
2023/01/19 12:49:42;;;;;;;4.50;3.60;;;3.70;99.90;;;;;;6216268;23;19997;-77
2023/01/19 12:52:32;;;;;;;2.30;2.20;;;3.70;99.90;;;;;;6189226;23;20092;-77
2023/01/19 12:55:05;;;;;;;4.57;4.17;;;3.70;99.90;;;;;;6189679;23;20079;-77
2023/01/19 12:57:46;;;;;;;5.20;4.70;;;3.70;99.90;;;;;;6189578;23;19993;-77
2023/01/19 13:00:21;;;;;;;4.90;4.50;;;3.70;99.90;;;;;;6189655;23;20008;-77
2023/01/19 13:02:58;;;;;;;9.03;6.27;;;3.80;99.90;;;;;;6189501;23;20008;-77
2023/01/19 13:05:24;;;;;;;4.93;4.43;;;3.80;99.90;;;;;;6216354;23;20329;-77
2023/01/19 13:08:03;;;;;;;3.53;3.23;;;3.90;99.90;;;;;;6216370;23;20000;-77
2023/01/19 13:11:09;;;;;;;2.97;2.70;;;3.90;99.90;;;;;;6189611;23;20011;-80
2023/01/19 13:13:45;;;;;;;6.30;5.70;;;3.90;99.90;;;;;;6189471;23;20043;-81